Time;durP1;ratioP1;P1;durP2;ratioP2;P2;SDS_P1;SDS_P2;PMS_P1;PMS_P2;Temp;Humidity;BMP_temperature;BMP_pressure;BME280_temperature;BME280_humidity;BME280_pressure;Samples;Min_cycle;Max_cycle;Signal;HPM_P1;HPM_P2
2022/07/13 00:01:45;;;;;;;6.90;3.78;;;20.00;99.90;;;;;;5033736;27;20139;-72
2022/07/13 00:04:11;;;;;;;6.35;3.63;;;19.90;99.90;;;;;;5047321;27;20041;-73
2022/07/13 00:06:37;;;;;;;6.55;3.55;;;20.00;99.90;;;;;;5011376;27;20817;-72
2022/07/13 00:09:03;;;;;;;8.20;4.75;;;19.90;99.90;;;;;;5033036;27;20047;-72
2022/07/13 00:11:29;;;;;;;7.82;4.53;;;19.90;99.90;;;;;;5050608;27;20482;-72
2022/07/13 00:13:55;;;;;;;8.65;4.63;;;20.00;99.90;;;;;;5026699;27;20049;-72
2022/07/13 00:16:21;;;;;;;6.50;4.10;;;20.00;99.90;;;;;;5031407;27;20389;-72
2022/07/13 00:18:47;;;;;;;8.52;4.40;;;20.00;99.90;;;;;;5030910;27;20477;-73
2022/07/13 00:21:13;;;;;;;9.13;4.88;;;20.00;99.90;;;;;;5029979;27;20151;-72
2022/07/13 00:23:39;;;;;;;9.10;4.20;;;20.00;99.90;;;;;;5030171;27;20029;-72
2022/07/13 00:26:05;;;;;;;6.32;4.10;;;20.00;99.90;;;;;;5029120;27;20052;-72
2022/07/13 00:28:30;;;;;;;8.13;4.30;;;19.90;99.90;;;;;;5025972;27;20053;-72
2022/07/13 00:30:56;;;;;;;7.07;4.60;;;19.90;99.90;;;;;;5023648;28;20052;-73
2022/07/13 00:33:25;;;;;;;7.68;4.40;;;20.00;99.90;;;;;;5007228;28;20048;-72
2022/07/13 00:35:50;;;;;;;9.25;4.20;;;19.90;99.90;;;;;;5028422;27;20051;-72
2022/07/13 00:38:16;;;;;;;7.55;4.30;;;19.90;99.90;;;;;;5032099;27;20421;-73
2022/07/13 00:40:42;;;;;;;7.40;4.18;;;19.90;99.90;;;;;;5013958;27;20471;-73
2022/07/13 00:43:07;;;;;;;7.57;4.55;;;19.90;99.90;;;;;;5030572;27;20049;-73
2022/07/13 00:45:34;;;;;;;8.02;4.70;;;20.00;99.90;;;;;;5028989;27;20042;-72
2022/07/13 00:48:00;;;;;;;9.63;4.97;;;19.90;99.90;;;;;;5030133;28;20389;-73
2022/07/13 00:50:26;;;;;;;7.20;4.32;;;20.00;99.90;;;;;;5029094;27;20045;-73
2022/07/13 00:52:52;;;;;;;7.88;4.60;;;20.00;99.90;;;;;;5029504;27;20045;-74
2022/07/13 00:55:18;;;;;;;7.40;4.18;;;20.00;99.90;;;;;;5031063;27;20053;-74
2022/07/13 00:57:43;;;;;;;6.70;4.68;;;20.00;99.90;;;;;;5032841;27;20391;-73
2022/07/13 01:00:12;;;;;;;7.10;4.50;;;20.00;99.90;;;;;;5013144;28;20555;-73
2022/07/13 01:02:40;;;;;;;8.15;4.20;;;19.90;99.90;;;;;;5011731;27;20056;-73
2022/07/13 01:05:06;;;;;;;6.97;4.60;;;19.90;99.90;;;;;;5013930;27;20106;-73
2022/07/13 01:07:33;;;;;;;7.65;4.78;;;19.90;99.90;;;;;;5029753;27;20037;-73
2022/07/13 01:10:00;;;;;;;7.82;5.78;;;19.90;99.90;;;;;;5030055;27;20045;-73
2022/07/13 01:12:30;;;;;;;8.73;5.63;;;19.90;99.90;;;;;;5029658;27;20053;-73
2022/07/13 01:14:57;;;;;;;8.93;5.60;;;20.00;99.90;;;;;;5026099;27;20057;-73
2022/07/13 01:17:24;;;;;;;8.20;5.10;;;20.00;99.90;;;;;;5030380;27;20065;-73
2022/07/13 01:19:51;;;;;;;7.32;4.40;;;20.00;99.90;;;;;;5032099;28;20079;-73
2022/07/13 01:22:21;;;;;;;10.77;5.80;;;20.00;99.90;;;;;;5098859;27;20041;-72
2022/07/13 01:24:48;;;;;;;9.30;5.85;;;20.00;99.90;;;;;;5025754;27;20344;-72
2022/07/13 01:27:15;;;;;;;11.27;6.07;;;20.00;99.90;;;;;;5024984;28;20045;-72
2022/07/13 01:29:41;;;;;;;8.75;5.50;;;20.00;99.90;;;;;;5024418;28;20140;-73
2022/07/13 01:32:07;;;;;;;9.27;6.50;;;20.00;99.90;;;;;;5003225;28;20539;-73
2022/07/13 01:34:33;;;;;;;8.63;5.57;;;20.00;99.90;;;;;;5019496;28;20056;-73
2022/07/13 01:36:59;;;;;;;6.93;5.30;;;20.00;99.90;;;;;;5020702;28;20045;-72
2022/07/13 01:39:26;;;;;;;9.63;6.50;;;20.00;99.90;;;;;;5021971;28;20068;-73
2022/07/13 01:41:51;;;;;;;10.43;7.25;;;20.00;99.90;;;;;;5030847;28;20052;-73
2022/07/13 01:44:17;;;;;;;8.57;6.25;;;20.00;99.90;;;;;;5026456;28;20368;-73
2022/07/13 01:46:43;;;;;;;9.98;6.68;;;20.00;99.90;;;;;;5028514;27;20056;-72
2022/07/13 01:49:09;;;;;;;12.50;6.80;;;20.10;99.90;;;;;;5027188;28;20041;-72
2022/07/13 01:51:35;;;;;;;10.15;6.35;;;20.00;99.90;;;;;;5025728;28;20045;-72
2022/07/13 01:54:01;;;;;;;9.18;6.38;;;20.10;99.90;;;;;;5003668;28;20041;-72
2022/07/13 01:56:26;;;;;;;10.02;6.57;;;20.10;99.90;;;;;;5020354;28;20044;-73
2022/07/13 01:58:52;;;;;;;9.27;6.28;;;20.10;99.90;;;;;;5025989;28;20723;-72
2022/07/13 02:01:18;;;;;;;8.35;6.30;;;20.10;99.90;;;;;;5027541;28;20105;-72
2022/07/13 02:03:44;;;;;;;8.40;6.32;;;20.10;99.90;;;;;;5038677;27;20558;-72
2022/07/13 02:06:10;;;;;;;11.63;6.72;;;20.20;99.90;;;;;;5033131;27;20049;-72
2022/07/13 02:08:36;;;;;;;8.95;6.97;;;20.10;99.90;;;;;;5032326;27;20049;-72
2022/07/13 02:11:02;;;;;;;9.35;6.63;;;20.20;99.90;;;;;;5018759;28;20484;-73
2022/07/13 02:13:27;;;;;;;10.85;6.68;;;20.20;99.90;;;;;;5045328;27;20039;-72
2022/07/13 02:15:53;;;;;;;9.18;6.50;;;20.10;99.90;;;;;;5037525;27;20101;-72
2022/07/13 02:18:19;;;;;;;9.85;6.20;;;20.10;99.90;;;;;;5020168;27;20047;-72
2022/07/13 02:20:45;;;;;;;9.35;6.93;;;20.10;99.90;;;;;;5037928;27;20144;-72
2022/07/13 02:23:10;;;;;;;11.95;7.35;;;20.10;99.90;;;;;;5019619;27;20488;-72
2022/07/13 02:25:39;;;;;;;8.85;7.18;;;20.10;99.90;;;;;;5055681;27;20100;-72
2022/07/13 02:28:06;;;;;;;10.40;6.85;;;20.10;99.90;;;;;;5039749;27;20320;-72
2022/07/13 02:30:33;;;;;;;11.30;6.78;;;20.10;99.90;;;;;;5051717;27;20064;-73
2022/07/13 02:32:59;;;;;;;9.23;7.05;;;20.00;99.90;;;;;;5007373;27;20390;-72
2022/07/13 02:35:25;;;;;;;8.93;6.40;;;20.00;99.90;;;;;;5051117;27;20045;-72
2022/07/13 02:37:51;;;;;;;11.10;7.35;;;20.00;99.90;;;;;;5063159;27;20043;-71
2022/07/13 02:40:17;;;;;;;9.80;7.13;;;20.00;99.90;;;;;;5068898;27;20065;-72
2022/07/13 02:42:42;;;;;;;10.52;7.45;;;20.00;99.90;;;;;;5035319;27;20068;-72
2022/07/13 02:45:08;;;;;;;12.50;7.30;;;20.00;99.90;;;;;;5038803;27;20480;-72
2022/07/13 02:47:34;;;;;;;9.93;7.20;;;20.00;99.90;;;;;;5018524;27;20112;-73
2022/07/13 02:50:00;;;;;;;8.88;6.93;;;20.00;99.90;;;;;;5036159;27;20056;-73
2022/07/13 02:52:26;;;;;;;10.00;7.90;;;20.00;99.90;;;;;;5041303;27;20082;-72
2022/07/13 02:54:52;;;;;;;10.20;7.40;;;20.00;99.90;;;;;;5061912;27;20052;-73
2022/07/13 02:57:18;;;;;;;11.30;7.25;;;20.00;99.90;;;;;;5013628;27;20044;-73
2022/07/13 02:59:44;;;;;;;9.40;6.97;;;20.00;99.90;;;;;;5013183;28;20052;-73
2022/07/13 03:02:10;;;;;;;10.95;7.43;;;20.00;99.90;;;;;;5014751;27;20535;-73
2022/07/13 03:04:35;;;;;;;11.38;6.88;;;20.00;99.90;;;;;;5045967;27;20044;-73
2022/07/13 03:07:02;;;;;;;9.60;7.40;;;20.00;99.90;;;;;;5031319;27;20048;-73
2022/07/13 03:09:28;;;;;;;9.25;6.47;;;19.90;99.90;;;;;;5047648;27;20056;-73
2022/07/13 03:11:54;;;;;;;11.25;7.75;;;20.00;99.90;;;;;;5035391;27;20048;-73
2022/07/13 03:14:20;;;;;;;10.63;6.95;;;20.00;99.90;;;;;;5033157;27;20057;-73
2022/07/13 03:16:46;;;;;;;9.65;7.20;;;19.90;99.90;;;;;;5024875;27;20056;-72
2022/07/13 03:19:12;;;;;;;9.77;7.28;;;20.00;99.90;;;;;;5043408;27;20093;-73
2022/07/13 03:21:38;;;;;;;9.63;7.00;;;19.90;99.90;;;;;;5033113;27;20397;-73
2022/07/13 03:24:03;;;;;;;9.25;7.28;;;19.90;99.90;;;;;;5023487;27;20029;-73
2022/07/13 03:26:29;;;;;;;9.18;6.93;;;19.90;99.90;;;;;;5034178;27;20062;-73
2022/07/13 03:28:55;;;;;;;9.25;7.07;;;19.90;99.90;;;;;;5035374;27;20036;-73
2022/07/13 03:31:21;;;;;;;9.52;7.80;;;19.90;99.90;;;;;;5020089;27;20433;-72
2022/07/13 03:33:47;;;;;;;12.32;7.30;;;19.90;99.90;;;;;;5069517;27;20525;-71
2022/07/13 03:36:13;;;;;;;9.38;7.03;;;19.90;99.90;;;;;;5017086;27;20574;-72
2022/07/13 03:38:38;;;;;;;8.90;6.75;;;19.90;99.90;;;;;;5034356;27;20056;-72
2022/07/13 03:41:04;;;;;;;11.48;7.38;;;19.90;99.90;;;;;;5034615;27;21202;-73
2022/07/13 03:43:30;;;;;;;9.60;6.93;;;19.90;99.90;;;;;;5035368;27;20049;-72
2022/07/13 03:45:57;;;;;;;12.63;7.32;;;19.90;99.90;;;;;;5054272;27;20096;-72
2022/07/13 03:48:22;;;;;;;11.73;6.97;;;19.90;99.90;;;;;;5033915;27;20041;-72
2022/07/13 03:50:49;;;;;;;9.52;7.00;;;19.90;99.90;;;;;;5031242;27;20098;-72
2022/07/13 03:53:15;;;;;;;12.45;7.40;;;19.90;99.90;;;;;;5009405;28;20037;-72
2022/07/13 03:55:42;;;;;;;10.07;7.15;;;19.90;99.90;;;;;;5052526;27;20045;-73
2022/07/13 03:58:10;;;;;;;11.10;7.70;;;19.90;99.90;;;;;;5055703;27;20045;-72
2022/07/13 04:00:36;;;;;;;8.95;6.88;;;19.90;99.90;;;;;;5040229;27;20104;-73
2022/07/13 04:03:02;;;;;;;10.07;7.10;;;19.90;99.90;;;;;;5030641;27;20037;-72
2022/07/13 04:05:28;;;;;;;9.73;7.50;;;19.90;99.90;;;;;;5035996;27;20128;-72
2022/07/13 04:07:54;;;;;;;10.30;7.15;;;19.90;99.90;;;;;;5034439;27;20147;-73
2022/07/13 04:10:21;;;;;;;11.57;6.90;;;20.00;99.90;;;;;;5034475;27;20155;-72
2022/07/13 04:12:48;;;;;;;9.13;6.53;;;19.90;99.90;;;;;;5051115;27;20748;-71
2022/07/13 04:15:14;;;;;;;10.50;6.50;;;20.00;99.90;;;;;;5035427;27;20447;-72
2022/07/13 04:17:41;;;;;;;10.43;7.20;;;20.00;99.90;;;;;;5033983;27;20057;-72
2022/07/13 04:20:08;;;;;;;9.20;6.63;;;20.00;99.90;;;;;;5051387;27;20043;-73
2022/07/13 04:22:35;;;;;;;9.23;6.47;;;19.90;99.90;;;;;;5069528;27;20045;-72
2022/07/13 04:25:01;;;;;;;9.75;6.68;;;20.00;99.90;;;;;;5018480;27;20052;-72
2022/07/13 04:27:27;;;;;;;10.73;7.22;;;20.00;99.90;;;;;;5049316;27;20078;-71
2022/07/13 04:29:52;;;;;;;8.32;6.38;;;20.00;99.90;;;;;;5012356;28;20045;-73
2022/07/13 04:32:18;;;;;;;10.45;6.82;;;20.00;99.90;;;;;;5039000;27;20047;-73
2022/07/13 04:34:44;;;;;;;9.82;6.45;;;20.00;99.90;;;;;;5045285;27;20144;-72
2022/07/13 04:37:09;;;;;;;8.55;6.05;;;20.00;99.90;;;;;;5041720;28;20409;-72
2022/07/13 04:39:35;;;;;;;10.20;6.88;;;20.00;99.90;;;;;;5038379;27;20049;-72
2022/07/13 04:42:01;;;;;;;8.65;6.43;;;20.00;99.90;;;;;;5025755;28;20033;-73
2022/07/13 04:44:27;;;;;;;11.15;6.70;;;20.00;99.90;;;;;;5025389;28;20390;-72
2022/07/13 04:46:53;;;;;;;9.73;6.18;;;20.00;99.90;;;;;;5025255;27;20053;-73
2022/07/13 04:49:19;;;;;;;9.23;5.93;;;20.00;99.90;;;;;;5023250;28;20041;-72
2022/07/13 04:51:49;;;;;;;11.43;6.65;;;20.00;99.90;;;;;;5025536;27;20132;-71
2022/07/13 04:54:19;;;;;;;10.80;6.45;;;20.00;99.90;;;;;;5043100;27;20497;-73
2022/07/13 04:56:45;;;;;;;8.57;6.22;;;20.00;99.90;;;;;;5007229;28;20137;-74
2022/07/13 04:59:12;;;;;;;10.85;6.75;;;20.00;99.90;;;;;;5025415;28;20037;-73
2022/07/13 05:01:38;;;;;;;10.40;6.18;;;20.00;99.90;;;;;;5033591;27;20044;-72
2022/07/13 05:04:04;;;;;;;10.68;6.72;;;20.00;99.90;;;;;;5041988;28;20049;-73
2022/07/13 05:06:30;;;;;;;9.65;6.07;;;20.00;99.90;;;;;;5023245;28;20485;-72
2022/07/13 05:08:56;;;;;;;8.60;6.75;;;20.00;99.90;;;;;;5025458;28;20055;-70
2022/07/13 05:11:25;;;;;;;10.27;6.60;;;20.00;99.90;;;;;;5024696;28;20087;-71
2022/07/13 05:13:52;;;;;;;10.98;6.20;;;20.00;99.90;;;;;;5090467;27;20056;-72
2022/07/13 05:16:18;;;;;;;8.80;6.40;;;20.00;99.90;;;;;;5017781;28;20080;-71
2022/07/13 05:18:44;;;;;;;10.55;7.68;;;20.00;99.90;;;;;;5019864;27;20622;-71
2022/07/13 05:21:10;;;;;;;9.45;6.57;;;20.00;99.90;;;;;;5038996;27;20279;-71
2022/07/13 05:23:36;;;;;;;9.75;7.10;;;20.00;99.90;;;;;;5056839;27;20425;-72
2022/07/13 05:26:02;;;;;;;9.40;6.85;;;20.00;99.90;;;;;;5023603;28;20033;-70
2022/07/13 05:28:28;;;;;;;9.38;7.28;;;20.00;99.90;;;;;;5027333;27;20072;-70
2022/07/13 05:30:54;;;;;;;10.35;7.07;;;20.00;99.90;;;;;;5029273;28;20041;-70
2022/07/13 05:33:20;;;;;;;10.45;6.38;;;20.10;99.90;;;;;;5013165;27;20041;-70
2022/07/13 05:35:46;;;;;;;9.73;6.97;;;20.10;99.90;;;;;;5028946;27;20056;-71
2022/07/13 05:38:12;;;;;;;11.45;7.75;;;20.10;99.90;;;;;;5030288;27;20052;-71
2022/07/13 05:40:38;;;;;;;10.80;7.50;;;20.10;99.90;;;;;;5040435;27;20375;-71
2022/07/13 05:43:04;;;;;;;11.82;7.30;;;20.10;99.90;;;;;;5040362;27;20418;-71
2022/07/13 05:45:30;;;;;;;11.38;7.80;;;20.10;99.90;;;;;;5018431;27;20108;-71
2022/07/13 05:47:55;;;;;;;11.13;7.93;;;20.20;99.90;;;;;;5013757;27;20040;-71
2022/07/13 05:50:21;;;;;;;13.63;8.05;;;20.20;99.90;;;;;;5037106;27;20051;-71
2022/07/13 05:52:47;;;;;;;10.50;7.20;;;20.20;99.90;;;;;;5049236;27;20383;-71
2022/07/13 05:55:13;;;;;;;10.43;7.60;;;20.30;99.90;;;;;;5009239;28;20072;-71
2022/07/13 05:57:39;;;;;;;10.48;7.80;;;20.30;99.90;;;;;;5031999;27;20077;-71
2022/07/13 06:00:10;;;;;;;12.82;8.52;;;20.30;99.90;;;;;;5035519;27;20052;-71
2022/07/13 06:02:36;;;;;;;13.13;8.10;;;20.40;99.90;;;;;;5047504;27;20159;-71
2022/07/13 06:05:03;;;;;;;12.73;8.27;;;20.40;99.90;;;;;;5005375;28;20127;-70
2022/07/13 06:07:28;;;;;;;10.13;7.95;;;20.30;99.90;;;;;;5018142;28;20057;-70
2022/07/13 06:09:58;;;;;;;11.77;8.07;;;20.40;99.90;;;;;;5021548;28;20052;-70
2022/07/13 06:12:25;;;;;;;12.20;8.18;;;20.40;99.90;;;;;;5058026;27;20560;-70
2022/07/13 06:14:52;;;;;;;13.10;8.43;;;20.50;99.90;;;;;;5005248;28;20439;-70
2022/07/13 06:17:19;;;;;;;12.98;8.73;;;20.60;99.90;;;;;;5022185;28;20472;-70
2022/07/13 06:19:45;;;;;;;14.60;8.93;;;20.60;99.90;;;;;;5057178;27;20104;-70
2022/07/13 06:22:10;;;;;;;12.25;8.75;;;20.70;99.90;;;;;;5037970;28;20061;-70
2022/07/13 06:24:36;;;;;;;11.50;8.13;;;20.80;99.90;;;;;;5020926;28;20115;-70
2022/07/13 06:27:02;;;;;;;11.18;8.52;;;20.90;99.90;;;;;;5019587;28;20556;-71
2022/07/13 06:29:27;;;;;;;12.27;8.32;;;21.10;99.90;;;;;;5037205;28;20049;-70
2022/07/13 06:31:53;;;;;;;12.05;8.68;;;21.20;99.90;;;;;;5020126;27;20581;-70
2022/07/13 06:34:19;;;;;;;15.05;9.77;;;21.30;99.90;;;;;;5027673;27;20092;-71
2022/07/13 06:36:45;;;;;;;12.65;8.63;;;21.40;99.90;;;;;;5020486;28;20505;-70
2022/07/13 06:39:10;;;;;;;11.88;8.57;;;21.80;99.90;;;;;;5040504;27;20052;-71
2022/07/13 06:41:36;;;;;;;13.15;9.32;;;21.80;99.90;;;;;;5026742;28;20520;-70
2022/07/13 06:44:02;;;;;;;13.55;8.90;;;21.90;99.90;;;;;;5024402;27;20048;-70
2022/07/13 06:46:28;;;;;;;12.68;8.80;;;22.00;99.90;;;;;;5024591;28;20492;-71
2022/07/13 06:48:54;;;;;;;11.73;8.20;;;22.10;99.90;;;;;;5042607;27;20045;-70
2022/07/13 06:51:19;;;;;;;13.27;8.30;;;22.10;99.90;;;;;;5030388;27;20101;-71
2022/07/13 06:53:45;;;;;;;14.07;8.73;;;22.20;99.90;;;;;;5048495;27;20041;-71
2022/07/13 06:56:11;;;;;;;16.23;9.43;;;22.10;99.90;;;;;;5040193;27;20458;-70
2022/07/13 06:58:37;;;;;;;14.52;8.48;;;22.30;99.90;;;;;;5048853;27;20459;-71
2022/07/13 07:01:03;;;;;;;13.05;8.23;;;22.30;99.90;;;;;;5022715;28;20140;-71
2022/07/13 07:03:29;;;;;;;12.60;8.18;;;22.30;99.90;;;;;;5004076;27;20124;-72
2022/07/13 07:05:55;;;;;;;12.05;8.05;;;22.40;99.90;;;;;;5039956;28;20397;-71
2022/07/13 07:08:21;;;;;;;11.25;7.07;;;22.40;99.90;;;;;;5022488;28;20033;-71
2022/07/13 07:10:47;;;;;;;13.20;7.60;;;22.40;99.90;;;;;;5028842;27;20059;-71
2022/07/13 07:13:13;;;;;;;12.15;7.20;;;22.40;99.90;;;;;;5025039;28;20049;-71
2022/07/13 07:15:39;;;;;;;14.05;6.90;;;22.50;99.90;;;;;;5055150;27;20648;-71
2022/07/13 07:18:05;;;;;;;11.75;7.30;;;22.60;99.90;;;;;;5026617;28;20041;-71
2022/07/13 07:20:31;;;;;;;12.30;6.50;;;22.80;99.90;;;;;;5007923;28;20101;-70
2022/07/13 07:22:57;;;;;;;19.27;7.22;;;23.10;99.90;;;;;;5042766;28;20438;-70
2022/07/13 07:25:23;;;;;;;13.38;6.88;;;23.40;99.90;;;;;;5008956;27;20041;-71
2022/07/13 07:27:49;;;;;;;11.23;6.35;;;23.70;99.90;;;;;;5041280;27;20521;-70
2022/07/13 07:30:14;;;;;;;11.85;7.60;;;24.00;99.90;;;;;;5054910;27;20568;-71
2022/07/13 07:32:40;;;;;;;13.13;7.03;;;24.80;99.90;;;;;;5060635;27;20049;-71
2022/07/13 07:35:07;;;;;;;10.52;6.82;;;25.60;99.90;;;;;;5022623;28;20045;-70
2022/07/13 07:37:34;;;;;;;15.80;7.45;;;26.00;99.90;;;;;;5041713;27;20038;-71
2022/07/13 07:39:59;;;;;;;11.25;7.18;;;26.10;99.90;;;;;;5024137;28;20033;-70
2022/07/13 07:42:25;;;;;;;16.40;7.20;;;26.20;99.90;;;;;;5025090;28;20497;-71
2022/07/13 07:44:51;;;;;;;14.82;7.30;;;26.30;99.90;;;;;;5023991;28;20084;-71
2022/07/13 07:47:17;;;;;;;11.05;6.97;;;26.60;99.90;;;;;;5022245;28;20496;-70
2022/07/13 07:49:43;;;;;;;12.98;7.20;;;26.80;99.90;;;;;;5056619;27;20091;-71
2022/07/13 07:52:09;;;;;;;16.58;8.20;;;27.00;99.90;;;;;;5040357;27;20057;-70
2022/07/13 07:54:35;;;;;;;13.10;7.10;;;27.20;99.90;;;;;;5009146;28;20092;-70
2022/07/13 07:57:02;;;;;;;12.18;7.70;;;27.40;99.90;;;;;;5023660;28;20037;-71
2022/07/13 07:59:27;;;;;;;14.30;8.30;;;27.70;99.90;;;;;;5040203;28;20062;-70
2022/07/13 08:01:53;;;;;;;13.55;7.07;;;27.90;99.90;;;;;;5022366;28;20032;-71
2022/07/13 08:04:19;;;;;;;14.45;6.88;;;27.90;99.90;;;;;;5007380;28;20049;-70
2022/07/13 08:06:44;;;;;;;11.38;6.22;;;28.00;99.90;;;;;;5022484;28;20102;-71
2022/07/13 08:09:10;;;;;;;10.45;6.25;;;28.10;99.90;;;;;;5021667;28;20041;-71
2022/07/13 08:11:36;;;;;;;10.25;6.18;;;28.30;99.90;;;;;;5012117;28;20041;-71
2022/07/13 08:14:02;;;;;;;10.85;5.68;;;28.40;99.90;;;;;;5033574;27;20061;-71
2022/07/13 08:16:27;;;;;;;13.95;6.40;;;28.60;99.90;;;;;;5053512;27;21407;-71
2022/07/13 08:18:53;;;;;;;10.25;5.53;;;28.70;99.90;;;;;;5022687;28;20140;-71
2022/07/13 08:21:19;;;;;;;11.55;6.82;;;28.80;99.90;;;;;;5036640;27;20049;-70
2022/07/13 08:23:56;;;;;;;10.30;5.97;;;28.90;99.90;;;;;;5006669;28;20510;-70
2022/07/13 08:26:27;;;;;;;12.88;5.55;;;28.90;99.90;;;;;;5003754;27;20133;-70
2022/07/13 08:28:54;;;;;;;9.35;5.50;;;29.10;99.90;;;;;;4991936;28;20472;-71
2022/07/13 08:31:22;;;;;;;9.05;4.30;;;29.10;99.90;;;;;;5000338;28;20056;-70
2022/07/13 08:39:23;;;;;;;9.93;4.97;;;29.40;99.90;;;;;;5022795;27;20762;-70
2022/07/13 08:41:49;;;;;;;9.40;4.80;;;29.50;99.90;;;;;;5017418;28;20685;-71
2022/07/13 08:44:15;;;;;;;12.68;5.22;;;29.60;99.90;;;;;;5039435;27;20481;-70
2022/07/13 08:46:41;;;;;;;8.00;4.65;;;29.70;99.90;;;;;;5022642;28;20563;-71
2022/07/13 08:49:08;;;;;;;8.75;4.53;;;29.80;99.90;;;;;;5038617;27;20405;-71
2022/07/13 08:51:35;;;;;;;9.00;4.40;;;29.80;99.90;;;;;;5027108;28;20044;-72
2022/07/13 08:54:03;;;;;;;10.50;3.70;;;29.90;99.90;;;;;;5022855;27;20052;-72
2022/07/13 08:56:28;;;;;;;8.95;4.25;;;29.90;99.90;;;;;;5023095;28;20497;-72
2022/07/13 08:58:54;;;;;;;7.85;4.18;;;30.00;99.90;;;;;;5038638;28;20037;-70
2022/07/13 09:01:20;;;;;;;10.63;5.45;;;30.10;99.90;;;;;;5019109;27;20633;-71
2022/07/13 09:03:47;;;;;;;11.40;5.70;;;30.10;99.90;;;;;;5022407;28;20124;-72
2022/07/13 09:06:49;;;;;;;8.57;5.15;;;29.90;99.50;;;;;;5036508;28;20371;-71
2022/07/13 09:09:33;;;;;;;9.38;5.00;;;29.70;99.90;;;;;;5023008;28;20060;-72
2022/07/13 09:12:12;;;;;;;9.25;4.72;;;29.60;99.90;;;;;;5022729;28;20067;-71
2022/07/13 09:14:39;;;;;;;7.78;3.13;;;29.70;99.90;;;;;;5040569;27;20484;-71
2022/07/13 09:17:05;;;;;;;8.18;3.50;;;29.90;99.90;;;;;;5054196;27;20413;-71
2022/07/13 09:19:40;;;;;;;8.43;3.50;;;30.10;99.90;;;;;;5021507;28;20048;-70
2022/07/13 09:22:11;;;;;;;9.50;3.35;;;30.20;99.90;;;;;;5022514;28;20077;-72
2022/07/13 09:24:48;;;;;;;7.15;3.75;;;30.40;99.90;;;;;;5003957;28;20193;-71
2022/07/13 09:27:15;;;;;;;8.95;4.03;;;30.40;99.00;;;;;;5018549;28;20053;-71
2022/07/13 09:29:42;;;;;;;6.50;3.60;;;30.40;99.60;;;;;;5020112;27;20656;-71
2022/07/13 09:32:11;;;;;;;8.85;3.85;;;30.50;99.80;;;;;;5017076;27;20504;-72
2022/07/13 09:34:51;;;;;;;9.73;4.18;;;30.50;97.70;;;;;;5002187;28;20053;-71
2022/07/13 09:37:18;;;;;;;7.10;3.70;;;30.50;98.70;;;;;;5020659;28;20045;-71
2022/07/13 09:40:01;;;;;;;8.82;4.13;;;30.50;97.80;;;;;;5051048;27;20843;-72
2022/07/13 09:42:28;;;;;;;7.13;4.18;;;30.50;98.50;;;;;;5015267;28;20388;-72
2022/07/13 09:47:54;;;;;;;5.75;3.00;;;30.50;97.00;;;;;;5035336;28;20049;-71
2022/07/13 09:50:44;;;;;;;7.88;4.22;;;30.40;97.40;;;;;;5014061;27;20040;-72
2022/07/13 09:53:30;;;;;;;8.70;3.87;;;30.50;96.80;;;;;;5017625;27;20464;-72
2022/07/13 09:55:57;;;;;;;9.73;4.15;;;30.50;96.30;;;;;;5012158;28;20311;-72
2022/07/13 09:58:28;;;;;;;7.80;3.65;;;30.50;96.00;;;;;;5056168;27;20045;-72
2022/07/13 10:00:56;;;;;;;7.25;3.40;;;30.40;96.50;;;;;;5015025;28;20052;-72
2022/07/13 10:03:23;;;;;;;10.23;3.72;;;30.40;96.20;;;;;;5020062;28;20056;-71
2022/07/13 10:05:51;;;;;;;7.63;3.53;;;30.40;97.00;;;;;;5018932;27;20048;-71
2022/07/13 10:08:18;;;;;;;7.75;3.20;;;30.60;96.80;;;;;;5018258;28;20101;-72
2022/07/13 10:10:46;;;;;;;7.05;2.95;;;30.70;97.10;;;;;;5038008;27;20080;-72
2022/07/13 10:13:16;;;;;;;6.50;2.60;;;30.80;96.90;;;;;;5019564;28;20037;-72
2022/07/13 10:15:43;;;;;;;8.77;2.72;;;30.90;96.80;;;;;;5001172;28;20063;-71
2022/07/13 10:18:12;;;;;;;8.20;3.00;;;30.90;96.40;;;;;;5035006;27;20045;-71
2022/07/13 10:20:42;;;;;;;6.07;2.97;;;31.00;97.10;;;;;;5002224;27;20053;-72
2022/07/13 10:23:09;;;;;;;6.63;2.40;;;31.10;96.20;;;;;;5030178;27;20521;-73
2022/07/13 10:25:45;;;;;;;6.43;2.53;;;31.20;95.90;;;;;;5020632;27;20311;-71
2022/07/13 10:28:12;;;;;;;5.10;2.15;;;31.10;95.20;;;;;;5052746;27;20048;-71
2022/07/13 10:30:38;;;;;;;6.93;2.30;;;31.00;93.90;;;;;;5039912;27;20501;-72
2022/07/13 10:33:21;;;;;;;8.93;2.70;;;30.90;93.30;;;;;;5053191;27;20513;-71
2022/07/13 10:35:51;;;;;;;8.20;2.42;;;30.90;93.80;;;;;;5038907;28;20037;-71
2022/07/13 10:38:19;;;;;;;5.90;2.30;;;30.90;93.00;;;;;;5036399;28;20047;-72
2022/07/13 10:40:45;;;;;;;6.60;2.58;;;30.90;93.50;;;;;;5018606;28;20523;-71
2022/07/13 10:43:13;;;;;;;6.38;3.08;;;30.90;93.30;;;;;;5017393;28;20102;-72
2022/07/13 10:45:42;;;;;;;8.27;3.15;;;30.90;93.70;;;;;;5039031;27;20097;-71
2022/07/13 10:48:30;;;;;;;6.47;2.13;;;30.80;93.10;;;;;;5017871;28;20509;-71
2022/07/13 10:50:57;;;;;;;4.28;2.10;;;30.70;90.50;;;;;;5033843;27;20121;-72
2022/07/13 10:53:38;;;;;;;4.28;1.88;;;30.50;90.70;;;;;;5049459;27;20052;-71
2022/07/13 10:56:15;;;;;;;5.20;1.67;;;30.30;89.50;;;;;;5021415;27;20067;-71
2022/07/13 10:58:42;;;;;;;4.55;1.80;;;30.10;88.90;;;;;;5023339;27;20500;-71
2022/07/13 11:01:47;;;;;;;7.22;2.22;;;30.10;90.80;;;;;;5038386;27;20044;-71
2022/07/13 11:04:17;;;;;;;4.45;2.40;;;30.20;90.50;;;;;;5020376;27;20053;-72
2022/07/13 11:06:43;;;;;;;4.53;2.03;;;30.10;90.40;;;;;;5022697;27;20053;-71
2022/07/13 11:09:20;;;;;;;5.75;2.15;;;30.00;89.80;;;;;;5018032;27;20799;-71
2022/07/13 11:11:48;;;;;;;3.65;1.80;;;29.80;89.20;;;;;;5018731;27;20156;-71
2022/07/13 11:14:36;;;;;;;4.43;1.60;;;29.70;90.10;;;;;;5015692;27;20065;-71
2022/07/13 11:17:11;;;;;;;4.18;1.90;;;29.60;90.60;;;;;;5018764;27;20053;-72
2022/07/13 11:20:01;;;;;;;4.40;1.70;;;29.50;90.20;;;;;;5046912;27;20041;-71
2022/07/13 11:25:33;;;;;;;6.22;2.10;;;29.50;90.70;;;;;;5017720;28;20109;-72
2022/07/13 11:28:08;;;;;;;3.95;1.77;;;29.30;90.40;;;;;;5035353;27;20045;-70
2022/07/13 11:30:43;;;;;;;5.40;1.80;;;28.90;90.60;;;;;;5031100;28;20097;-71
2022/07/13 11:33:12;;;;;;;6.47;2.30;;;28.70;91.50;;;;;;5023498;27;20044;-71
2022/07/13 11:35:44;;;;;;;4.55;1.95;;;28.60;92.30;;;;;;5036558;27;20041;-73
2022/07/13 11:38:10;;;;;;;5.43;2.00;;;28.30;92.90;;;;;;5004153;27;20044;-72
2022/07/13 11:40:36;;;;;;;3.35;1.50;;;28.10;93.20;;;;;;5051960;27;20040;-72
2022/07/13 11:43:03;;;;;;;5.38;1.77;;;28.20;93.60;;;;;;5049213;27;20045;-72
2022/07/13 11:45:32;;;;;;;5.63;1.75;;;28.50;93.70;;;;;;5035695;27;20099;-72
2022/07/13 11:47:59;;;;;;;5.43;2.53;;;28.80;93.70;;;;;;5037520;27;20041;-72
2022/07/13 11:50:39;;;;;;;7.25;2.80;;;28.80;93.90;;;;;;5049350;27;20465;-72
2022/07/13 11:53:05;;;;;;;5.55;2.40;;;28.50;94.50;;;;;;5035664;27;20053;-73
2022/07/13 11:55:31;;;;;;;5.35;2.13;;;28.10;94.80;;;;;;4999512;28;20037;-73
2022/07/13 11:57:59;;;;;;;10.02;2.00;;;27.90;95.80;;;;;;5002516;27;20056;-71
2022/07/13 12:00:24;;;;;;;8.30;2.80;;;27.80;96.70;;;;;;5013888;27;20580;-71
2022/07/13 12:02:51;;;;;;;6.80;3.10;;;27.70;97.50;;;;;;5015532;27;20093;-71
2022/07/13 12:05:26;;;;;;;6.18;2.70;;;27.50;98.20;;;;;;5051150;27;20057;-71
2022/07/13 12:08:03;;;;;;;6.82;2.40;;;27.20;99.10;;;;;;5020567;27;20460;-71
2022/07/13 12:10:30;;;;;;;7.90;2.10;;;27.10;99.90;;;;;;5036422;27;20043;-73
2022/07/13 12:12:56;;;;;;;8.13;2.30;;;27.00;99.90;;;;;;5020004;27;20127;-70
2022/07/13 12:15:22;;;;;;;7.43;2.60;;;27.00;99.90;;;;;;5034249;27;20580;-70
2022/07/13 12:17:48;;;;;;;9.45;2.22;;;27.00;99.90;;;;;;5016914;27;20750;-72
2022/07/13 12:20:23;;;;;;;7.30;2.30;;;26.90;99.90;;;;;;5017180;27;20037;-71
2022/07/13 12:22:52;;;;;;;4.28;2.40;;;26.90;99.90;;;;;;5020199;27;20048;-71
2022/07/13 12:25:34;;;;;;;11.00;3.13;;;26.90;99.90;;;;;;5011693;28;20287;-71
2022/07/13 12:28:01;;;;;;;7.47;2.33;;;26.70;99.90;;;;;;5016187;27;20772;-73
2022/07/13 12:30:31;;;;;;;8.90;2.50;;;26.50;99.90;;;;;;5002802;28;20044;-71
2022/07/13 12:33:02;;;;;;;7.75;2.67;;;26.20;99.90;;;;;;5019033;27;20080;-71
2022/07/13 12:35:41;;;;;;;10.13;2.65;;;25.80;99.90;;;;;;5017016;27;20583;-72
2022/07/13 12:38:11;;;;;;;8.60;2.75;;;25.60;99.90;;;;;;5002228;28;20045;-72
2022/07/13 12:40:52;;;;;;;7.38;2.40;;;25.30;99.90;;;;;;4997489;27;20345;-72
2022/07/13 12:43:27;;;;;;;8.57;2.75;;;25.30;99.90;;;;;;5020014;27;20052;-72
2022/07/13 12:45:58;;;;;;;5.80;1.92;;;25.40;99.90;;;;;;5017177;28;20433;-69
2022/07/13 12:48:25;;;;;;;6.18;2.40;;;25.80;99.90;;;;;;5035120;27;20048;-69
2022/07/13 12:51:08;;;;;;;6.80;2.10;;;25.90;99.90;;;;;;5030206;27;20097;-71
2022/07/13 12:53:52;;;;;;;8.55;1.85;;;26.10;99.90;;;;;;5018829;27;20036;-71
2022/07/13 12:56:26;;;;;;;6.28;2.30;;;26.30;99.90;;;;;;5001287;28;20060;-71
2022/07/13 12:58:58;;;;;;;9.35;3.03;;;26.40;99.90;;;;;;5016621;28;20121;-72